createdAt,value
2023-01-19T00:08:27.120Z,1.94
2023-01-19T00:23:29.838Z,2.12
2023-01-19T00:38:46.925Z,1.91
2023-01-19T00:53:49.663Z,1.77
2023-01-19T01:08:52.319Z,1.71
2023-01-19T01:23:55.188Z,2.03
2023-01-19T01:38:58.891Z,2.08
2023-01-19T01:54:02.679Z,1.89
2023-01-19T02:09:29.525Z,1.90
2023-01-19T02:24:47.270Z,2.40
2023-01-19T02:39:57.972Z,2.10
2023-01-19T02:55:27.968Z,1.81
2023-01-19T03:10:53.035Z,1.66
2023-01-19T03:26:18.148Z,1.87
2023-01-19T03:41:24.838Z,1.89
2023-01-19T03:56:43.171Z,1.69
2023-01-19T04:11:46.207Z,1.47
2023-01-19T04:42:09.970Z,2.03
2023-01-19T04:57:12.731Z,2.11
2023-01-19T05:12:15.777Z,1.85
2023-01-19T05:27:18.474Z,1.86
2023-01-19T05:42:21.077Z,2.02
2023-01-19T05:57:24.436Z,1.73
2023-01-19T06:12:27.131Z,1.61
2023-01-19T06:31:13.548Z,2.14
2023-01-19T06:46:18.593Z,2.13
2023-01-19T07:01:22.976Z,1.93
2023-01-19T07:16:27.208Z,1.88
2023-01-19T07:31:31.641Z,2.32
2023-01-19T07:46:36.047Z,2.11
2023-01-19T08:01:41.536Z,1.93
2023-01-19T08:16:45.887Z,1.94
2023-01-19T08:31:50.285Z,2.37
2023-01-19T08:46:55.091Z,2.43
2023-01-19T09:01:59.941Z,2.17
2023-01-19T09:17:04.502Z,2.16
2023-01-19T09:32:11.671Z,2.65
2023-01-19T09:47:22.426Z,2.74
2023-01-19T10:02:44.836Z,2.51
2023-01-19T10:18:33.349Z,2.70
2023-01-19T10:33:42.550Z,2.77
2023-01-19T10:49:01.074Z,2.50
2023-01-19T11:04:30.133Z,2.46
2023-01-19T11:19:34.715Z,2.10
2023-01-19T11:34:39.452Z,2.24
2023-01-19T11:50:06.434Z,2.13
2023-01-19T12:20:50.575Z,1.80
2023-01-19T12:52:34.305Z,1.54
2023-01-19T13:08:05.547Z,1.49
2023-01-19T13:23:29.713Z,1.93
2023-01-19T13:38:34.061Z,1.92
2023-01-19T13:53:38.159Z,1.91
2023-01-19T14:09:20.604Z,2.03
2023-01-19T14:24:26.043Z,2.30
2023-01-19T14:39:35.003Z,2.11
2023-01-19T14:54:40.958Z,1.59
2023-01-19T15:25:22.881Z,0.82
2023-01-19T15:40:27.339Z,0.70
2023-01-19T16:10:49.811Z,0.72
2023-01-19T16:26:05.110Z,0.36
2023-01-19T16:56:28.982Z,-0.05
2023-01-19T17:11:35.070Z,0.16
2023-01-19T17:26:39.495Z,0.04
2023-01-19T17:41:43.892Z,-0.21
2023-01-19T17:56:48.453Z,-0.39
2023-01-19T18:11:53.244Z,-0.56
2023-01-19T18:26:57.809Z,-0.59
2023-01-19T18:42:02.070Z,-0.23
2023-01-19T18:57:06.476Z,-0.26
2023-01-19T19:12:10.758Z,-0.58
2023-01-19T19:27:14.915Z,-0.48
2023-01-19T19:42:18.958Z,-0.38
2023-01-19T19:57:23.284Z,-0.58
2023-01-19T20:12:27.644Z,-0.82
2023-01-19T20:27:31.860Z,-1.04
2023-01-19T20:42:36.899Z,-1.13
2023-01-19T20:57:41.040Z,-0.82
2023-01-19T21:12:45.659Z,-0.91
2023-01-19T21:27:50.973Z,-1.18
2023-01-19T21:42:54.986Z,-1.39
2023-01-19T21:57:59.334Z,-1.59
2023-01-19T22:13:03.680Z,-1.63
2023-01-19T22:28:08.541Z,-1.15
2023-01-19T22:43:12.518Z,-1.13
2023-01-19T22:58:16.401Z,-1.32
2023-01-19T23:13:20.200Z,-1.50
2023-01-19T23:28:39.357Z,-1.65
2023-01-19T23:43:44.153Z,-1.64
2023-01-19T23:59:06.866Z,-1.25
